createdAt,value
2018-12-17T17:41:38.383Z,17.20
2018-12-17T17:46:40.800Z,17.63
2018-12-17T17:51:43.269Z,20.10
2018-12-17T17:56:45.538Z,17.50
2018-12-17T18:01:47.833Z,19.30
2018-12-17T18:06:50.108Z,17.27
2018-12-17T18:11:52.600Z,18.73
2018-12-17T18:16:54.779Z,19.70
2018-12-17T18:21:57.084Z,18.93
2018-12-17T18:26:59.472Z,22.23
2018-12-17T18:32:01.859Z,22.37
2018-12-17T18:37:04.249Z,21.43
2018-12-17T18:42:06.669Z,20.70
2018-12-17T18:47:08.836Z,22.40
2018-12-17T18:52:11.029Z,20.03
2018-12-17T18:57:20.392Z,21.30
2018-12-17T19:02:22.580Z,20.10
2018-12-17T19:07:24.848Z,20.73
2018-12-17T19:12:27.117Z,21.27
2018-12-17T19:17:29.508Z,20.30
2018-12-17T19:22:31.896Z,19.20
2018-12-17T19:27:34.323Z,20.30
2018-12-17T19:32:40.126Z,20.37
2018-12-17T19:37:40.916Z,21.60
2018-12-17T19:42:43.116Z,19.63
2018-12-17T19:47:45.524Z,20.20
2018-12-17T19:52:47.772Z,21.10
2018-12-17T19:57:50.072Z,22.83
2018-12-17T20:02:52.508Z,25.00
2018-12-17T20:07:54.700Z,25.83
2018-12-17T20:12:56.980Z,22.30
2018-12-17T20:18:00.272Z,22.67
2018-12-17T20:23:02.469Z,21.47
2018-12-17T20:28:04.856Z,22.03
2018-12-17T20:33:07.283Z,20.67
2018-12-17T20:38:09.488Z,19.03
2018-12-17T20:43:11.796Z,17.97
2018-12-17T20:48:13.977Z,18.67
2018-12-17T20:53:16.194Z,20.20
2018-12-17T20:58:18.525Z,15.90
2018-12-17T21:03:21.888Z,16.00
2018-12-17T21:08:29.912Z,19.10
2018-12-17T21:13:32.125Z,20.10
